Time;durP1;ratioP1;P1;durP2;ratioP2;P2;SDS_P1;SDS_P2;PMS_P1;PMS_P2;Temp;Humidity;BMP_temperature;BMP_pressure;BME280_temperature;BME280_humidity;BME280_pressure;Samples;Min_cycle;Max_cycle;Signal;HPM_P1;HPM_P2
2022/03/23 00:01:23;;;;;;;52.47;27.25;;;282.40;819.20;;;;;;5093216;28;20101;-60
2022/03/23 00:03:49;;;;;;;52.38;27.33;;;282.30;844.80;;;;;;5093523;28;20024;-59
2022/03/23 00:06:17;;;;;;;54.88;28.10;;;282.30;819.20;;;;;;5093570;28;20477;-60
2022/03/23 00:08:44;;;;;;;55.85;30.23;;;282.30;819.20;;;;;;5093398;28;20103;-60
2022/03/23 00:11:10;;;;;;;53.70;29.33;;;282.20;844.80;;;;;;5093181;28;20032;-59
2022/03/23 00:13:36;;;;;;;62.03;30.70;;;282.20;844.80;;;;;;5093531;28;20032;-59
2022/03/23 00:16:03;;;;;;;70.88;30.88;;;282.30;844.80;;;;;;5093352;28;20077;-59
2022/03/23 00:18:29;;;;;;;57.22;31.42;;;282.20;844.80;;;;;;5093491;28;20020;-59
2022/03/23 00:20:55;;;;;;;62.97;32.97;;;282.20;844.80;;;;;;5093160;28;20042;-59
2022/03/23 00:23:21;;;;;;;66.68;33.22;;;282.10;844.80;;;;;;5093213;28;20052;-59
2022/03/23 00:25:47;;;;;;;70.22;32.20;;;282.10;844.80;;;;;;5093840;28;20028;-61
2022/03/23 00:28:13;;;;;;;53.05;30.40;;;282.10;844.80;;;;;;5093355;28;20020;-59
2022/03/23 00:30:40;;;;;;;55.55;29.85;;;282.10;844.80;;;;;;5093013;28;20067;-60
2022/03/23 00:33:06;;;;;;;64.30;33.72;;;282.00;870.40;;;;;;5093109;28;20024;-59
2022/03/23 00:35:32;;;;;;;64.20;33.42;;;281.90;870.40;;;;;;5094206;28;20081;-59
2022/03/23 00:37:58;;;;;;;63.00;32.38;;;281.90;870.40;;;;;;5096994;28;20032;-59
2022/03/23 00:40:25;;;;;;;63.22;32.17;;;281.90;870.40;;;;;;5096860;28;20046;-61
2022/03/23 00:42:51;;;;;;;59.00;32.00;;;281.90;870.40;;;;;;5096845;28;20118;-59
2022/03/23 00:45:18;;;;;;;60.78;32.78;;;281.90;870.40;;;;;;5096714;28;20055;-61
2022/03/23 00:47:45;;;;;;;58.85;31.10;;;281.90;870.40;;;;;;5096864;28;20477;-59
2022/03/23 00:50:11;;;;;;;57.20;29.45;;;281.90;870.40;;;;;;5096929;28;20035;-61
2022/03/23 00:52:37;;;;;;;56.80;29.48;;;281.80;870.40;;;;;;5096734;28;20378;-60
2022/03/23 00:55:08;;;;;;;54.63;28.95;;;281.80;896.00;;;;;;5096537;28;20039;-59
2022/03/23 00:57:34;;;;;;;54.67;28.88;;;281.80;896.00;;;;;;5096650;28;20469;-59
2022/03/23 00:59:59;;;;;;;62.33;30.52;;;281.70;896.00;;;;;;5096355;28;20048;-61
2022/03/23 01:02:26;;;;;;;56.50;29.85;;;281.70;896.00;;;;;;5096507;28;20024;-60
2022/03/23 01:04:52;;;;;;;61.92;30.67;;;281.60;896.00;;;;;;5096510;28;20351;-59
2022/03/23 01:07:18;;;;;;;62.55;33.50;;;281.60;896.00;;;;;;5096401;28;20070;-59
2022/03/23 01:09:44;;;;;;;58.58;31.85;;;281.60;896.00;;;;;;5096292;28;20054;-60
2022/03/23 01:12:10;;;;;;;56.35;29.40;;;256.90;870.40;;;;;;5096120;28;20073;-59
2022/03/23 01:14:36;;;;;;;54.83;29.05;;;256.90;870.40;;;;;;5096111;28;20033;-59
2022/03/23 01:17:01;;;;;;;52.75;30.05;;;256.90;870.40;;;;;;5096045;28;20020;-58
2022/03/23 01:19:27;;;;;;;55.08;28.73;;;256.80;870.40;;;;;;5096280;28;20032;-58
2022/03/23 01:21:54;;;;;;;57.10;29.85;;;256.80;870.40;;;;;;5096043;28;20451;-60
2022/03/23 01:24:21;;;;;;;59.45;31.38;;;256.80;870.40;;;;;;5095587;28;20510;-59
2022/03/23 01:26:46;;;;;;;59.60;31.13;;;256.70;896.00;;;;;;5096126;28;20042;-61
2022/03/23 01:29:13;;;;;;;57.70;30.38;;;256.70;896.00;;;;;;5095970;28;20024;-60
2022/03/23 01:31:38;;;;;;;55.03;29.40;;;256.60;921.60;;;;;;5095668;28;20024;-59
2022/03/23 01:34:04;;;;;;;53.45;29.65;;;256.60;921.60;;;;;;5095666;28;20032;-59
2022/03/23 01:36:31;;;;;;;52.38;27.83;;;256.60;921.60;;;;;;5095667;28;20035;-59
2022/03/23 01:38:57;;;;;;;58.78;29.98;;;256.60;921.60;;;;;;5095502;28;20072;-59
2022/03/23 01:41:24;;;;;;;59.00;31.05;;;256.60;921.60;;;;;;5095720;28;20070;-59
2022/03/23 01:43:50;;;;;;;59.70;32.75;;;256.50;921.60;;;;;;5095722;28;20028;-59
2022/03/23 01:46:20;;;;;;;63.20;32.30;;;256.50;921.60;;;;;;5095079;28;20099;-59
2022/03/23 01:48:47;;;;;;;66.75;32.20;;;256.50;921.60;;;;;;5095192;28;20023;-59
2022/03/23 01:51:13;;;;;;;62.35;33.45;;;256.30;921.60;;;;;;5095552;28;20027;-59
2022/03/23 01:53:40;;;;;;;58.97;31.65;;;256.30;921.60;;;;;;5095397;28;20424;-58
2022/03/23 01:56:08;;;;;;;56.03;31.52;;;256.30;947.20;;;;;;5095373;28;20436;-59
2022/03/23 01:58:34;;;;;;;58.63;32.03;;;256.30;921.60;;;;;;5095413;28;20028;-59
2022/03/23 02:01:00;;;;;;;59.35;32.53;;;256.30;921.60;;;;;;5095070;28;20059;-60
2022/03/23 02:03:26;;;;;;;64.43;33.45;;;256.10;947.20;;;;;;5095358;28;20020;-61
2022/03/23 02:05:52;;;;;;;59.35;32.17;;;231.30;947.20;;;;;;5094908;28;20059;-60
2022/03/23 02:08:18;;;;;;;66.25;32.42;;;231.20;972.80;;;;;;5095132;28;20048;-60
2022/03/23 02:10:44;;;;;;;55.58;28.75;;;231.10;972.80;;;;;;5095139;28;20061;-60
2022/03/23 02:13:10;;;;;;;60.67;31.48;;;231.00;998.40;;;;;;5094995;28;20073;-60
2022/03/23 02:15:36;;;;;;;60.05;31.42;;;230.80;998.40;;;;;;5094921;28;20066;-58
2022/03/23 02:18:02;;;;;;;53.50;29.70;;;230.70;998.40;;;;;;5095062;28;20020;-58
2022/03/23 02:20:28;;;;;;;53.28;30.73;;;230.70;1024.00;;;;;;5094815;28;20043;-60
2022/03/23 02:22:54;;;;;;;65.32;32.83;;;230.70;1024.00;;;;;;5094850;28;20028;-60
2022/03/23 02:25:23;;;;;;;65.68;31.70;;;230.50;1049.60;;;;;;5094893;28;20050;-58
2022/03/23 02:27:50;;;;;;;60.15;29.92;;;230.50;1049.60;;;;;;5094901;28;20024;-58
2022/03/23 02:30:16;;;;;;;51.05;28.20;;;230.50;1049.60;;;;;;5094833;28;20533;-58
2022/03/23 02:32:41;;;;;;;47.95;25.38;;;230.40;1075.20;;;;;;5094366;28;20103;-58
2022/03/23 02:35:10;;;;;;;38.38;19.30;;;230.40;1075.20;;;;;;5094697;28;20086;-58
2022/03/23 02:37:36;;;;;;;37.05;17.98;;;230.40;1075.20;;;;;;5094746;28;20470;-58
2022/03/23 02:40:03;;;;;;;33.83;19.38;;;230.40;1075.20;;;;;;5094238;28;20032;-59
2022/03/23 02:42:28;;;;;;;34.50;16.58;;;230.40;1075.20;;;;;;5094380;28;20527;-59
2022/03/23 02:44:54;;;;;;;32.15;17.75;;;230.40;1075.20;;;;;;5094573;28;20130;-60
2022/03/23 02:47:20;;;;;;;31.23;15.98;;;230.40;1075.20;;;;;;5094655;28;20156;-60
2022/03/23 02:49:45;;;;;;;33.58;17.10;;;230.40;1075.20;;;;;;5094716;28;20031;-60
2022/03/23 02:52:11;;;;;;;30.33;16.80;;;230.40;1100.80;;;;;;5094268;28;20450;-60
2022/03/23 03:03:14;;;;;;;41.42;23.92;;;205.70;1100.80;;;;;;5094780;28;20038;-58
2022/03/23 03:05:40;;;;;;;40.88;21.50;;;205.70;1100.80;;;;;;5094115;28;20563;-60
2022/03/23 03:10:50;;;;;;;33.65;18.30;;;205.70;1100.80;;;;;;5094621;28;20121;-59
2022/03/23 03:13:16;;;;;;;31.73;17.05;;;205.70;1100.80;;;;;;5094079;28;20051;-59
2022/03/23 03:15:41;;;;;;;35.08;16.45;;;205.70;1100.80;;;;;;5094139;28;20032;-58
2022/03/23 03:18:07;;;;;;;32.42;17.10;;;205.70;1100.80;;;;;;5094116;28;20024;-58
2022/03/23 03:20:33;;;;;;;31.67;15.25;;;205.70;1126.40;;;;;;5093956;28;20031;-60
2022/03/23 03:22:58;;;;;;;28.33;14.20;;;230.40;1100.80;;;;;;5094004;28;20027;-60
2022/03/23 03:25:24;;;;;;;33.60;15.02;;;230.40;1100.80;;;;;;5094032;28;20024;-58
2022/03/23 03:27:50;;;;;;;40.78;14.05;;;230.40;1100.80;;;;;;5093611;28;20028;-60
2022/03/23 03:30:18;;;;;;;31.15;14.27;;;230.40;1100.80;;;;;;5093754;28;20386;-60
2022/03/23 03:32:45;;;;;;;31.73;13.88;;;230.50;1100.80;;;;;;5093802;28;20020;-59
2022/03/23 03:35:11;;;;;;;36.10;13.45;;;230.50;1100.80;;;;;;5093728;28;20060;-59
2022/03/23 03:37:37;;;;;;;24.98;12.95;;;230.50;1100.80;;;;;;5093522;28;20485;-59
2022/03/23 03:40:05;;;;;;;33.92;13.18;;;230.60;1075.20;;;;;;5093672;28;20125;-59
2022/03/23 03:42:30;;;;;;;34.13;12.98;;;230.60;1075.20;;;;;;5075288;28;20028;-59
2022/03/23 03:44:57;;;;;;;32.60;12.50;;;230.60;1075.20;;;;;;5094232;28;20039;-59
2022/03/23 03:47:23;;;;;;;29.35;13.68;;;230.60;1100.80;;;;;;5092901;28;20052;-59
2022/03/23 03:49:50;;;;;;;26.90;12.63;;;230.60;1100.80;;;;;;5093603;28;20028;-59
2022/03/23 03:52:18;;;;;;;31.10;13.32;;;230.60;1075.20;;;;;;5093484;28;20103;-58
2022/03/23 03:54:44;;;;;;;36.47;13.82;;;230.60;1075.20;;;;;;5093253;28;20040;-58
2022/03/23 03:57:10;;;;;;;20.75;12.27;;;230.60;1100.80;;;;;;5094108;28;20028;-58
2022/03/23 03:59:37;;;;;;;29.77;13.57;;;230.60;1100.80;;;;;;5093377;28;20081;-58
2022/03/23 04:02:03;;;;;;;34.13;13.65;;;230.60;1075.20;;;;;;5093666;28;20074;-58
2022/03/23 04:04:30;;;;;;;31.85;12.95;;;230.60;1100.80;;;;;;5093155;28;20071;-58
2022/03/23 04:06:56;;;;;;;30.88;13.60;;;230.60;1075.20;;;;;;5093598;28;20377;-58
2022/03/23 04:09:21;;;;;;;34.47;11.70;;;230.50;1100.80;;;;;;5093346;28;20541;-58
2022/03/23 04:11:47;;;;;;;32.55;12.80;;;230.50;1100.80;;;;;;5096936;28;20056;-59
2022/03/23 04:14:13;;;;;;;41.65;14.05;;;230.50;1100.80;;;;;;5097308;28;20119;-60
2022/03/23 04:16:39;;;;;;;36.35;13.70;;;230.50;1100.80;;;;;;5097457;28;20024;-59
2022/03/23 04:19:06;;;;;;;33.20;14.13;;;230.50;1100.80;;;;;;5097356;28;20024;-58
2022/03/23 04:21:32;;;;;;;34.90;12.25;;;230.50;1100.80;;;;;;5078321;28;20035;-58
2022/03/23 04:23:58;;;;;;;46.58;13.43;;;230.50;1100.80;;;;;;5097286;28;20024;-58
2022/03/23 04:26:24;;;;;;;35.70;12.88;;;230.60;1100.80;;;;;;5097244;28;20024;-58
2022/03/23 04:28:50;;;;;;;39.97;12.93;;;230.50;1100.80;;;;;;5097393;28;20023;-58
2022/03/23 04:31:16;;;;;;;32.83;13.20;;;230.50;1100.80;;;;;;5097010;28;20032;-58
2022/03/23 04:33:42;;;;;;;63.00;31.05;;;230.50;1100.80;;;;;;5097046;28;20024;-61
2022/03/23 04:36:09;;;;;;;218.32;128.35;;;230.40;1126.40;;;;;;5096953;28;20385;-60
2022/03/23 04:38:35;;;;;;;105.63;61.72;;;230.40;1126.40;;;;;;5096983;28;20024;-60
2022/03/23 04:41:01;;;;;;;51.90;24.88;;;230.40;1126.40;;;;;;5097098;28;20484;-61
2022/03/23 04:43:27;;;;;;;47.05;17.88;;;230.40;1126.40;;;;;;5096710;28;20031;-59
2022/03/23 04:45:53;;;;;;;35.00;13.93;;;205.70;1126.40;;;;;;5096738;28;20024;-59
2022/03/23 04:48:19;;;;;;;45.67;13.82;;;205.70;1152.00;;;;;;5096903;28;20024;-60
2022/03/23 04:50:46;;;;;;;28.80;12.02;;;205.70;1152.00;;;;;;5096488;28;20032;-61
2022/03/23 04:53:13;;;;;;;42.63;12.27;;;205.60;1152.00;;;;;;5096422;28;20024;-60
2022/03/23 04:55:39;;;;;;;38.08;12.63;;;205.60;1152.00;;;;;;5096517;28;20066;-59
2022/03/23 04:58:05;;;;;;;47.95;12.15;;;205.50;1152.00;;;;;;5096900;28;20051;-59
2022/03/23 05:00:30;;;;;;;33.78;11.80;;;205.50;1177.60;;;;;;5096176;28;20413;-58
2022/03/23 05:02:56;;;;;;;43.45;13.15;;;205.50;1177.60;;;;;;5096310;28;20530;-61
2022/03/23 05:05:22;;;;;;;36.85;13.90;;;205.50;1177.60;;;;;;5096508;28;20020;-59
2022/03/23 05:07:47;;;;;;;50.53;14.32;;;205.50;1177.60;;;;;;5096241;28;20028;-59
2022/03/23 05:10:14;;;;;;;31.42;13.98;;;205.50;1177.60;;;;;;5096221;28;20123;-59
2022/03/23 05:12:42;;;;;;;29.55;12.50;;;205.60;1177.60;;;;;;5078412;28;20055;-59
2022/03/23 05:15:09;;;;;;;77.18;23.70;;;205.60;1177.60;;;;;;5096016;28;20039;-60
2022/03/23 05:17:39;;;;;;;69.43;29.92;;;205.60;1177.60;;;;;;5096228;28;20067;-60
2022/03/23 05:20:06;;;;;;;45.65;18.60;;;205.60;1177.60;;;;;;5095933;28;20027;-70
2022/03/23 05:22:32;;;;;;;75.60;16.23;;;205.60;1177.60;;;;;;5096139;28;20500;-59
2022/03/23 05:24:58;;;;;;;41.85;13.00;;;205.70;1177.60;;;;;;5095885;28;20063;-60
2022/03/23 05:27:24;;;;;;;49.38;14.65;;;205.70;1177.60;;;;;;5096091;28;20069;-59
2022/03/23 05:29:50;;;;;;;45.80;14.02;;;230.40;1177.60;;;;;;5095893;28;20024;-64
2022/03/23 05:32:16;;;;;;;38.40;13.95;;;230.70;1356.80;;;;;;5094075;28;20024;-59
2022/03/23 05:34:45;;;;;;;43.00;14.60;;;230.80;1228.80;;;;;;5094319;28;20412;-59
2022/03/23 05:37:12;;;;;;;54.15;15.20;;;230.80;1203.20;;;;;;5094206;28;20012;-58
2022/03/23 05:39:51;;;;;;;57.83;20.35;;;230.80;1177.60;;;;;;5094129;28;20032;-59
2022/03/23 05:42:16;;;;;;;55.97;16.52;;;230.90;1152.00;;;;;;5092047;28;20028;-62
2022/03/23 05:44:42;;;;;;;43.05;15.68;;;231.00;1152.00;;;;;;5094084;28;20027;-61
2022/03/23 05:47:08;;;;;;;57.15;17.85;;;231.00;1152.00;;;;;;5093983;28;20024;-60
2022/03/23 05:49:34;;;;;;;52.90;19.85;;;231.00;1152.00;;;;;;5093697;28;20031;-60
2022/03/23 05:51:59;;;;;;;46.10;18.70;;;231.10;1126.40;;;;;;5093936;28;20044;-60
2022/03/23 05:54:25;;;;;;;46.17;15.68;;;231.20;1126.40;;;;;;5094082;28;20097;-59
2022/03/23 05:56:51;;;;;;;44.03;18.10;;;231.30;1126.40;;;;;;5094780;28;20408;-60
2022/03/23 05:59:18;;;;;;;44.15;18.83;;;256.00;1126.40;;;;;;5095390;28;20036;-63
2022/03/23 06:01:44;;;;;;;43.33;19.42;;;256.00;1126.40;;;;;;5094980;28;20097;-63
2022/03/23 06:04:10;;;;;;;44.92;15.55;;;256.20;1100.80;;;;;;5095330;28;20564;-62
2022/03/23 06:06:36;;;;;;;35.03;14.45;;;256.30;1100.80;;;;;;5094882;28;20032;-60
2022/03/23 06:09:02;;;;;;;52.75;14.73;;;256.40;1100.80;;;;;;5095236;28;20024;-60
2022/03/23 06:11:28;;;;;;;30.17;12.48;;;256.50;1075.20;;;;;;5075733;28;20047;-60
2022/03/23 06:13:54;;;;;;;46.20;13.27;;;256.60;1100.80;;;;;;5093440;28;20093;-60
2022/03/23 06:16:19;;;;;;;52.40;14.23;;;256.70;1075.20;;;;;;5095182;28;20021;-62
2022/03/23 06:18:46;;;;;;;50.25;16.25;;;256.90;1075.20;;;;;;5095114;28;20522;-60
2022/03/23 06:21:12;;;;;;;44.22;16.55;;;281.60;1100.80;;;;;;5094858;28;20027;-60
2022/03/23 06:23:39;;;;;;;46.70;16.40;;;281.70;1100.80;;;;;;5095426;28;20032;-60
2022/03/23 06:26:05;;;;;;;40.63;17.00;;;281.80;1075.20;;;;;;5094588;28;20035;-60
2022/03/23 06:28:31;;;;;;;46.97;13.85;;;281.80;1100.80;;;;;;5094969;28;20024;-60
2022/03/23 06:30:58;;;;;;;48.55;15.75;;;282.00;1075.20;;;;;;5094814;28;20023;-60
2022/03/23 06:33:24;;;;;;;60.20;21.90;;;282.10;1075.20;;;;;;5094258;28;20028;-61
2022/03/23 06:35:51;;;;;;;60.03;17.13;;;282.20;1075.20;;;;;;5094691;28;20067;-62
2022/03/23 06:38:17;;;;;;;38.60;12.32;;;282.30;1075.20;;;;;;5094562;28;20020;-60
2022/03/23 06:40:43;;;;;;;68.47;13.00;;;282.30;1049.60;;;;;;5094445;28;20032;-60
2022/03/23 06:43:09;;;;;;;35.17;11.43;;;282.40;1049.60;;;;;;5094611;28;20424;-60
2022/03/23 06:45:35;;;;;;;45.75;14.25;;;282.50;1049.60;;;;;;5094651;28;20028;-60
2022/03/23 06:48:02;;;;;;;45.00;15.57;;;307.20;1075.20;;;;;;5094869;28;20044;-60
2022/03/23 06:50:28;;;;;;;59.40;19.00;;;307.30;1075.20;;;;;;5075714;28;20474;-60
2022/03/23 06:52:53;;;;;;;61.67;21.90;;;307.40;1075.20;;;;;;5093904;28;20028;-62
2022/03/23 06:55:19;;;;;;;63.50;23.98;;;307.40;1075.20;;;;;;5094148;28;20032;-62
2022/03/23 06:57:45;;;;;;;57.05;20.85;;;307.50;1075.20;;;;;;5094403;28;20024;-60
2022/03/23 07:00:14;;;;;;;55.90;18.38;;;307.60;1075.20;;;;;;5094127;28;20048;-60
2022/03/23 07:02:44;;;;;;;40.08;15.63;;;307.70;1075.20;;;;;;5094101;28;20192;-63
2022/03/23 07:05:11;;;;;;;43.88;14.00;;;307.80;1049.60;;;;;;5094294;28;20130;-60
2022/03/23 07:07:38;;;;;;;43.72;13.25;;;307.90;1049.60;;;;;;5093992;28;20028;-60
2022/03/23 07:10:06;;;;;;;44.13;14.02;;;308.10;1049.60;;;;;;5093913;28;20020;-60
2022/03/23 07:12:32;;;;;;;38.25;12.38;;;308.10;1049.60;;;;;;5094221;28;20028;-60
2022/03/23 07:14:58;;;;;;;31.50;12.40;;;332.90;1075.20;;;;;;5093907;28;20093;-60
2022/03/23 07:17:24;;;;;;;34.13;11.77;;;333.00;1075.20;;;;;;5094068;28;20027;-60
2022/03/23 07:19:50;;;;;;;43.30;12.23;;;333.00;1049.60;;;;;;5094043;28;20039;-60
2022/03/23 07:22:16;;;;;;;43.28;10.85;;;333.10;1049.60;;;;;;5093876;28;20028;-60
2022/03/23 07:24:43;;;;;;;29.25;10.77;;;333.20;1049.60;;;;;;5093951;28;20028;-60
2022/03/23 07:27:09;;;;;;;42.13;11.43;;;333.40;1049.60;;;;;;5094223;28;20031;-60
2022/03/23 07:29:37;;;;;;;42.63;13.80;;;333.50;1024.00;;;;;;5093875;28;20024;-60
2022/03/23 07:32:03;;;;;;;42.50;14.77;;;333.70;1024.00;;;;;;5093928;28;20072;-60
2022/03/23 07:34:29;;;;;;;40.88;13.23;;;358.40;1024.00;;;;;;5093863;28;20024;-60
2022/03/23 07:36:55;;;;;;;38.67;12.07;;;358.50;1024.00;;;;;;5093817;28;20028;-60
2022/03/23 07:39:25;;;;;;;36.80;11.32;;;358.60;1024.00;;;;;;5093843;28;20028;-60
2022/03/23 07:41:53;;;;;;;43.13;11.18;;;358.80;1024.00;;;;;;5093788;28;20020;-60
2022/03/23 07:44:21;;;;;;;34.80;10.23;;;358.90;1024.00;;;;;;5093747;28;20111;-60
2022/03/23 07:46:46;;;;;;;34.15;10.35;;;359.00;998.40;;;;;;5097469;28;20024;-60
2022/03/23 07:49:13;;;;;;;42.67;10.43;;;359.00;998.40;;;;;;5097976;28;20025;-60
2022/03/23 07:51:39;;;;;;;32.67;9.73;;;359.10;998.40;;;;;;5097729;28;20039;-63
2022/03/23 07:54:06;;;;;;;45.38;10.63;;;359.20;998.40;;;;;;5097935;28;20565;-63
2022/03/23 07:56:32;;;;;;;36.58;9.35;;;384.00;998.40;;;;;;5098484;28;20022;-60
2022/03/23 07:58:58;;;;;;;37.95;9.15;;;384.10;998.40;;;;;;5079838;28;20051;-60
2022/03/23 08:01:24;;;;;;;40.17;12.05;;;384.20;972.80;;;;;;5097703;28;20040;-61
2022/03/23 08:03:49;;;;;;;52.22;16.90;;;384.40;972.80;;;;;;5097791;28;20020;-64
2022/03/23 08:06:15;;;;;;;59.90;19.05;;;384.50;972.80;;;;;;5097678;28;20369;-63
2022/03/23 08:08:41;;;;;;;42.30;15.77;;;384.70;972.80;;;;;;5097331;28;20031;-60
2022/03/23 08:11:07;;;;;;;39.55;13.82;;;384.80;947.20;;;;;;5097654;28;20028;-60
2022/03/23 08:13:33;;;;;;;30.33;12.07;;;384.80;947.20;;;;;;5097588;28;20431;-60
2022/03/23 08:16:00;;;;;;;40.40;11.60;;;409.60;947.20;;;;;;5097412;28;20043;-62
2022/03/23 08:18:27;;;;;;;32.72;11.10;;;409.60;947.20;;;;;;5097595;28;20023;-61
2022/03/23 08:20:53;;;;;;;34.28;9.23;;;409.70;947.20;;;;;;5097435;28;20028;-60
2022/03/23 08:23:19;;;;;;;36.67;9.50;;;409.90;921.60;;;;;;5097184;28;20035;-63
2022/03/23 08:25:45;;;;;;;39.88;10.30;;;409.90;947.20;;;;;;5097636;28;20097;-60
2022/03/23 08:28:14;;;;;;;40.35;9.65;;;410.00;921.60;;;;;;5097148;28;20449;-63
2022/03/23 08:30:41;;;;;;;32.85;8.93;;;410.10;947.20;;;;;;5097554;28;20028;-60
2022/03/23 08:33:08;;;;;;;32.83;9.65;;;410.20;921.60;;;;;;5097169;28;20385;-60
2022/03/23 08:35:34;;;;;;;32.22;8.80;;;410.30;921.60;;;;;;5097102;28;20060;-60
2022/03/23 08:38:00;;;;;;;31.30;8.75;;;410.40;921.60;;;;;;5097097;28;20020;-59
2022/03/23 08:40:26;;;;;;;38.47;8.85;;;410.40;921.60;;;;;;5097152;28;20106;-60
2022/03/23 08:42:52;;;;;;;23.45;8.27;;;410.50;896.00;;;;;;5097102;28;20016;-60
2022/03/23 08:45:18;;;;;;;32.38;9.18;;;435.20;896.00;;;;;;5097053;28;20078;-60
2022/03/23 08:47:44;;;;;;;25.92;9.18;;;435.30;896.00;;;;;;5096973;28;20044;-60
2022/03/23 08:50:12;;;;;;;24.00;8.98;;;435.40;896.00;;;;;;5096988;28;20047;-60
2022/03/23 08:52:39;;;;;;;33.30;8.27;;;435.40;896.00;;;;;;5096716;28;20103;-60
2022/03/23 08:55:07;;;;;;;29.42;8.60;;;435.50;870.40;;;;;;5096778;28;20040;-60
2022/03/23 08:57:33;;;;;;;28.08;8.23;;;435.70;870.40;;;;;;5096509;28;20016;-60
2022/03/23 08:59:59;;;;;;;31.27;9.48;;;435.70;870.40;;;;;;5096672;28;20123;-60
2022/03/23 09:02:25;;;;;;;32.13;9.27;;;435.70;844.80;;;;;;5096582;28;20066;-59
2022/03/23 09:04:50;;;;;;;23.40;7.57;;;435.80;819.20;;;;;;5096452;28;20028;-63
2022/03/23 09:07:17;;;;;;;25.67;7.50;;;435.90;844.80;;;;;;5096369;28;20021;-60
2022/03/23 09:09:42;;;;;;;26.80;7.93;;;436.00;844.80;;;;;;5096479;28;20039;-60
2022/03/23 09:12:09;;;;;;;25.13;8.07;;;436.00;819.20;;;;;;5096336;28;20028;-60
2022/03/23 09:14:35;;;;;;;25.88;8.60;;;436.10;844.80;;;;;;5096407;28;20123;-60
2022/03/23 09:17:13;;;;;;;27.92;8.05;;;460.80;870.40;;;;;;5096355;28;20020;-60
2022/03/23 09:19:39;;;;;;;35.20;8.45;;;460.80;870.40;;;;;;5096151;28;20032;-60
2022/03/23 09:22:06;;;;;;;24.58;8.75;;;460.90;870.40;;;;;;5096346;28;20023;-60
2022/03/23 09:24:32;;;;;;;19.90;7.93;;;461.00;844.80;;;;;;5095977;28;20370;-61
2022/03/23 09:26:58;;;;;;;31.38;8.95;;;461.00;844.80;;;;;;5096127;28;20113;-60
2022/03/23 09:29:24;;;;;;;24.67;7.40;;;461.10;844.80;;;;;;5096214;28;20157;-60
2022/03/23 09:31:50;;;;;;;27.02;8.27;;;461.10;844.80;;;;;;5096144;28;20020;-60
2022/03/23 09:34:15;;;;;;;22.75;7.32;;;461.20;844.80;;;;;;5095951;28;20039;-60
2022/03/23 09:39:25;;;;;;;22.00;7.00;;;461.20;870.40;;;;;;5095956;28;20038;-60
2022/03/23 09:41:53;;;;;;;19.23;7.25;;;461.30;844.80;;;;;;5095797;28;20024;-63
2022/03/23 09:44:20;;;;;;;23.73;7.57;;;461.30;870.40;;;;;;5095903;28;20024;-60
2022/03/23 09:46:46;;;;;;;22.80;6.63;;;461.40;844.80;;;;;;5095583;28;20500;-60
2022/03/23 09:49:12;;;;;;;21.85;7.20;;;461.40;844.80;;;;;;5095825;28;20020;-61
2022/03/23 09:51:39;;;;;;;21.42;6.28;;;461.50;844.80;;;;;;5095738;28;20125;-60
2022/03/23 09:54:07;;;;;;;22.40;6.82;;;461.50;844.80;;;;;;5095692;28;20032;-60
2022/03/23 09:56:33;;;;;;;20.20;7.70;;;461.50;844.80;;;;;;5095467;28;20466;-63
2022/03/23 09:59:02;;;;;;;30.52;7.70;;;461.50;819.20;;;;;;5095604;28;20032;-60
2022/03/23 10:01:28;;;;;;;28.63;8.45;;;461.60;819.20;;;;;;5095356;28;20058;-60
2022/03/23 10:04:09;;;;;;;22.67;6.70;;;461.60;793.60;;;;;;5095288;28;20099;-60
2022/03/23 10:07:05;;;;;;;21.85;6.63;;;461.70;793.60;;;;;;5095341;28;20030;-60
2022/03/23 10:10:04;;;;;;;17.08;6.15;;;486.40;768.00;;;;;;5094380;28;20038;-63
2022/03/23 10:13:07;;;;;;;23.58;7.47;;;486.40;768.00;;;;;;5094282;28;20032;-60
2022/03/23 10:16:10;;;;;;;22.60;5.72;;;486.50;768.00;;;;;;5095265;28;20373;-60
2022/03/23 10:18:52;;;;;;;16.85;5.82;;;486.50;793.60;;;;;;5095170;28;20115;-60
2022/03/23 10:21:19;;;;;;;32.03;6.13;;;486.50;742.40;;;;;;5095309;28;20143;-60
2022/03/23 10:24:00;;;;;;;18.42;5.75;;;486.60;742.40;;;;;;5095080;28;20024;-59
2022/03/23 10:26:31;;;;;;;18.55;8.52;;;486.60;716.80;;;;;;5095075;28;20101;-60
2022/03/23 10:28:58;;;;;;;21.20;9.70;;;486.70;716.80;;;;;;5094717;28;20142;-60
2022/03/23 10:31:25;;;;;;;23.65;8.63;;;486.70;716.80;;;;;;5095091;28;20069;-60
2022/03/23 10:33:59;;;;;;;17.33;7.07;;;486.80;742.40;;;;;;5094931;28;20040;-60
2022/03/23 10:36:27;;;;;;;18.52;6.85;;;486.80;742.40;;;;;;5094930;28;20038;-64
2022/03/23 10:39:03;;;;;;;19.15;5.97;;;486.80;716.80;;;;;;5094716;28;20028;-60
2022/03/23 10:41:30;;;;;;;18.52;6.80;;;486.90;716.80;;;;;;5094636;28;20024;-60
2022/03/23 10:43:57;;;;;;;15.73;6.50;;;486.90;716.80;;;;;;5094917;28;20024;-60
2022/03/23 10:46:24;;;;;;;13.07;5.93;;;486.90;716.80;;;;;;5094366;28;20462;-60
2022/03/23 10:49:09;;;;;;;22.80;6.15;;;487.00;742.40;;;;;;5094471;28;20374;-60
2022/03/23 10:51:36;;;;;;;19.48;6.50;;;487.00;716.80;;;;;;5094738;28;20430;-63
2022/03/23 10:54:26;;;;;;;16.52;6.28;;;487.10;716.80;;;;;;5094218;28;20032;-60
2022/03/23 10:56:51;;;;;;;17.75;6.20;;;487.10;716.80;;;;;;5094279;28;20043;-60
2022/03/23 10:59:23;;;;;;;30.65;6.38;;;487.20;691.20;;;;;;5094905;28;20020;-60
2022/03/23 11:02:02;;;;;;;18.60;5.82;;;487.20;716.80;;;;;;5094521;28;20047;-60
2022/03/23 11:04:30;;;;;;;18.23;5.95;;;487.20;716.80;;;;;;5094039;28;20063;-60
2022/03/23 11:06:58;;;;;;;18.45;6.10;;;487.20;716.80;;;;;;5093889;28;20032;-63
2022/03/23 11:18:08;;;;;;;15.65;5.57;;;487.30;691.20;;;;;;5094345;28;20111;-59
2022/03/23 11:20:46;;;;;;;20.73;5.10;;;487.20;716.80;;;;;;5093856;28;20024;-60
2022/03/23 11:23:19;;;;;;;20.33;5.28;;;487.20;691.20;;;;;;5093913;28;20024;-60
2022/03/23 11:25:46;;;;;;;12.48;4.78;;;487.20;691.20;;;;;;5094093;28;20024;-60
2022/03/23 11:28:16;;;;;;;19.70;5.50;;;487.20;716.80;;;;;;5094014;28;20020;-64
2022/03/23 11:30:43;;;;;;;14.27;5.45;;;487.20;691.20;;;;;;5094055;28;20027;-60
2022/03/23 11:33:20;;;;;;;22.60;5.78;;;487.20;691.20;;;;;;5093890;28;20020;-60
2022/03/23 11:35:49;;;;;;;27.67;5.80;;;487.20;691.20;;;;;;5093945;28;20036;-60
2022/03/23 11:38:23;;;;;;;14.95;5.20;;;487.20;716.80;;;;;;5093716;28;20031;-59
2022/03/23 11:40:50;;;;;;;16.85;5.70;;;487.30;691.20;;;;;;5093727;28;20051;-64
2022/03/23 11:43:19;;;;;;;17.00;6.10;;;487.30;691.20;;;;;;5093360;28;20024;-64
2022/03/23 11:45:47;;;;;;;16.35;5.45;;;487.30;691.20;;;;;;5092165;28;20012;-63
2022/03/23 11:48:18;;;;;;;18.20;5.50;;;487.30;691.20;;;;;;5092642;28;20028;-61
2022/03/23 11:51:01;;;;;;;21.65;5.40;;;512.00;716.80;;;;;;5093236;28;20023;-62
2022/03/23 11:53:35;;;;;;;21.73;6.00;;;512.00;691.20;;;;;;5092088;28;20020;-60
2022/03/23 11:56:02;;;;;;;15.35;5.60;;;512.00;691.20;;;;;;5093721;28;20062;-60
2022/03/23 11:58:37;;;;;;;15.35;5.85;;;512.00;716.80;;;;;;5093674;28;20032;-61
2022/03/23 12:01:12;;;;;;;17.27;7.38;;;512.00;691.20;;;;;;5093483;28;20398;-59
2022/03/23 12:03:48;;;;;;;25.98;8.80;;;512.00;691.20;;;;;;5093660;28;20385;-60
2022/03/23 12:06:23;;;;;;;20.80;8.75;;;512.00;691.20;;;;;;5093368;28;20017;-58
2022/03/23 12:08:50;;;;;;;;;;;512.00;691.20;;;;;;5093915;28;20047;-59
2022/03/23 12:11:43;;;;;;;20.70;6.80;;;512.00;691.20;;;;;;5092907;28;19923;-57
2022/03/23 12:14:22;;;;;;;19.50;6.68;;;512.00;665.60;;;;;;5092798;28;20032;-58
2022/03/23 12:16:51;;;;;;;14.52;6.25;;;512.10;665.60;;;;;;5089936;28;20108;-58
2022/03/23 12:19:18;;;;;;;14.55;6.07;;;512.20;665.60;;;;;;5092646;28;20039;-58
2022/03/23 12:21:53;;;;;;;11.80;6.28;;;512.20;665.60;;;;;;5093024;28;20024;-60
2022/03/23 12:24:34;;;;;;;21.63;5.53;;;512.30;640.00;;;;;;5093153;28;20546;-59
2022/03/23 12:27:07;;;;;;;11.30;5.72;;;512.40;665.60;;;;;;5092362;28;20427;-58
2022/03/23 12:29:38;;;;;;;16.40;5.95;;;512.40;640.00;;;;;;5075286;28;20036;-59
2022/03/23 12:32:08;;;;;;;17.23;5.38;;;512.50;640.00;;;;;;5094514;28;20031;-60
2022/03/23 12:34:36;;;;;;;19.27;5.75;;;512.50;614.40;;;;;;5096503;28;20036;-59